Предлагаем Вашему вниманию английскую версию страницы: AUTOTAF.ME 28747 - aviation weather forecast Petropavlovskij

AUTOTAF 28747 - авиапрогноз Петропавловский

Сегодня рассвет 03:14 UTC, восход солнца 03:57 UTC,
местный полдень 07:49 UTC, заход солнца 11:41 UTC,
наступление темноты 12:23 UTC.

Краткий прогноз 28747 на 9 часов

AUTOTAF.ME 28747 020800Z 0209/0218 VRB02MPS CAVOK

Детальный прогноз 28747 на 24 часа

AUTOTAF.ME 28747 020800Z 0209/0309 VRB02MPS 9999 OVC150 TXM11/0309Z TNM15/0221Z

Подробный табличный прогноз

Время (UTC) miniAUTOTAF на 3 ч WX FZLVL
M AGL
ICE TURB Т
(°С)
Тd
(°С)
f(%) QNH
(гПа)
WIND/T
06 VRB02MPS 9999 BKN007 SFC -14 -16 84 1045 ...
09 VRB02MPS 9999 OVC150 SFC -12 -15 79 1043 ...
12 VRB02MPS 9999 BKN130 SFC -13 -16 84 1042 ...
15 VRB02MPS 9999 BKN140 SFC -14 -16 83 1041 ...
18 VRB02MPS 9999 SCT140 SFC -14 -17 84 1040 ...
21 VRB02MPS 9999 SKC SFC -15 -17 83 1040 ...
03.12.2020
00 VRB02MPS 9999 SKC SFC -14 -17 83 1040 ...
03 VRB02MPS 9999 SKC SFC -15 -17 85 1039 ...
06 VRB02MPS 9999 SKC SFC -13 -16 82 1039 ...
09 VRB02MPS 9999 SCT129 SFC -11 -14 77 1038 ...
12 VRB02MPS 9999 BKN129 SFC -13 -15 80 1038 ...
15 VRB02MPS 9999 BKN129 SFC -13 -16 79 1039 ...
18 VRB02MPS 9999 BKN129 SFC -13 -16 79 1039 ...
21 VRB02MPS 9999 BKN173 SFC -13 -16 79 1039 ...
04.12.2020
00 VRB02MPS 9999 SKC SFC -13 -17 77 1038 ...
03 VRB02MPS 9999 SKC SFC -13 -17 74 1039 ...


Широта 54°, долгота 60.1°, высота 314 м абс.
Средняя высота рельефа местности 359 м абс.
Прогнозы обновляются четыре раза в сутки: в 02, 08, 14, 20 ч всемирного времени.


Выбрать прогноз по другой модели Петропавловский
Онлайн-сводка гроз по Петропавловский (для РФ и ближнего зарубежья)
Карта фактических гроз в окрестностях Петропавловский
Динамические прогностические карты (ventusky.com)
Прогностическая карта высоты нижней границы облаков по Петропавловский (windy.com)
Выбрать другой город

Прогноз предназначен для личного научно-познавательного использования частными лицами
и не предназначен для принятия важных решений и выполнения реальных полётов воздушных судов

При копировании или ином использовании любых материалов данного сайта ссылка на © meteocenter.asia обязательна.

0.58/0.7